sensor_id;sensor_type;location;lat;lon;timestamp;pressure;altitude;pressure_sealevel;temperature;humidity
56518;BME280;42419;48.760;2.322;2023-05-27T00:00:11;101645.34;;;21.28;49.87
56518;BME280;42419;48.760;2.322;2023-05-27T00:02:37;101630.50;;;21.17;49.80
56518;BME280;42419;48.760;2.322;2023-05-27T00:05:02;101632.16;;;21.21;50.00
56518;BME280;42419;48.760;2.322;2023-05-27T00:07:28;101647.13;;;21.28;49.94
56518;BME280;42419;48.760;2.322;2023-05-27T00:09:54;101648.94;;;21.27;50.03
56518;BME280;42419;48.760;2.322;2023-05-27T00:12:20;101642.69;;;21.27;50.08
56518;BME280;42419;48.760;2.322;2023-05-27T00:14:45;101630.25;;;21.24;50.04
56518;BME280;42419;48.760;2.322;2023-05-27T00:17:11;101635.53;;;21.27;50.19
56518;BME280;42419;48.760;2.322;2023-05-27T00:19:43;101632.91;;;21.26;50.29
56518;BME280;42419;48.760;2.322;2023-05-27T00:22:13;101640.00;;;21.27;50.31
56518;BME280;42419;48.760;2.322;2023-05-27T00:24:38;101634.66;;;21.27;50.33
56518;BME280;42419;48.760;2.322;2023-05-27T00:27:08;101638.25;;;21.26;50.38
56518;BME280;42419;48.760;2.322;2023-05-27T00:29:34;101622.34;;;21.20;50.38
56518;BME280;42419;48.760;2.322;2023-05-27T00:32:03;101616.25;;;21.15;50.17
56518;BME280;42419;48.760;2.322;2023-05-27T00:34:29;101630.25;;;21.24;50.29
56518;BME280;42419;48.760;2.322;2023-05-27T00:36:56;101617.88;;;21.20;50.24
56518;BME280;42419;48.760;2.322;2023-05-27T00:39:21;101606.50;;;21.12;50.13
56518;BME280;42419;48.760;2.322;2023-05-27T00:41:50;101625.84;;;21.23;49.80
56518;BME280;42419;48.760;2.322;2023-05-27T00:44:16;101617.81;;;21.23;49.84
56518;BME280;42419;48.760;2.322;2023-05-27T00:46:42;101615.13;;;21.23;50.09
56518;BME280;42419;48.760;2.322;2023-05-27T00:49:08;101618.72;;;21.22;50.19
56518;BME280;42419;48.760;2.322;2023-05-27T00:51:33;101611.66;;;21.20;50.17
56518;BME280;42419;48.760;2.322;2023-05-27T00:53:59;101615.16;;;21.22;50.23
56518;BME280;42419;48.760;2.322;2023-05-27T00:56:24;101609.81;;;21.22;50.19
56518;BME280;42419;48.760;2.322;2023-05-27T00:58:51;101606.25;;;21.21;50.24
56518;BME280;42419;48.760;2.322;2023-05-27T01:01:16;101606.25;;;21.21;50.53
56518;BME280;42419;48.760;2.322;2023-05-27T01:03:42;101591.28;;;21.14;50.41
56518;BME280;42419;48.760;2.322;2023-05-27T01:14:26;101600.13;;;21.18;50.31
56518;BME280;42419;48.760;2.322;2023-05-27T01:16:56;101604.59;;;21.17;50.34
56518;BME280;42419;48.760;2.322;2023-05-27T01:19:33;101590.41;;;21.14;50.37
56518;BME280;42419;48.760;2.322;2023-05-27T01:22:00;101587.72;;;21.14;50.17
56518;BME280;42419;48.760;2.322;2023-05-27T01:24:26;101600.16;;;21.16;50.31
56518;BME280;42419;48.760;2.322;2023-05-27T01:26:52;101593.91;;;21.16;50.35
56518;BME280;42419;48.760;2.322;2023-05-27T01:29:17;101596.56;;;21.17;50.10
56518;BME280;42419;48.760;2.322;2023-05-27T01:31:48;101609.06;;;21.17;50.43
56518;BME280;42419;48.760;2.322;2023-05-27T01:34:18;101608.19;;;21.16;50.37
56518;BME280;42419;48.760;2.322;2023-05-27T01:36:55;101602.00;;;21.14;50.25
56518;BME280;42419;48.760;2.322;2023-05-27T01:39:24;101601.03;;;21.15;50.54
56518;BME280;42419;48.760;2.322;2023-05-27T01:41:52;101531.03;;;20.70;50.24
56518;BME280;42419;48.760;2.322;2023-05-27T01:44:18;101587.84;;;21.09;50.27
56518;BME280;42419;48.760;2.322;2023-05-27T01:46:44;101588.56;;;21.16;50.58
56518;BME280;42419;48.760;2.322;2023-05-27T01:49:10;101588.78;;;21.08;50.55
56518;BME280;42419;48.760;2.322;2023-05-27T01:51:35;101575.41;;;21.06;50.15
56518;BME280;42419;48.760;2.322;2023-05-27T01:54:02;101554.41;;;20.93;50.24
56518;BME280;42419;48.760;2.322;2023-05-27T01:56:27;101603.72;;;21.15;50.29
56518;BME280;42419;48.760;2.322;2023-05-27T01:58:53;101586.94;;;21.10;50.15
56518;BME280;42419;48.760;2.322;2023-05-27T02:01:18;101594.97;;;21.10;50.21
56518;BME280;42419;48.760;2.322;2023-05-27T02:03:43;101579.81;;;21.09;49.94
56518;BME280;42419;48.760;2.322;2023-05-27T02:06:09;101590.56;;;21.07;50.06
56518;BME280;42419;48.760;2.322;2023-05-27T02:08:34;101574.72;;;21.01;50.02
56518;BME280;42419;48.760;2.322;2023-05-27T02:11:00;101594.91;;;21.12;49.90
56518;BME280;42419;48.760;2.322;2023-05-27T02:13:25;101572.75;;;21.06;49.89
56518;BME280;42419;48.760;2.322;2023-05-27T02:15:51;101574.59;;;21.04;49.98
56518;BME280;42419;48.760;2.322;2023-05-27T02:18:17;101576.38;;;21.05;49.67
56518;BME280;42419;48.760;2.322;2023-05-27T02:20:42;101582.44;;;21.10;49.92
56518;BME280;42419;48.760;2.322;2023-05-27T02:23:07;101579.75;;;21.10;49.82
56518;BME280;42419;48.760;2.322;2023-05-27T02:25:33;101586.94;;;21.10;49.78
56518;BME280;42419;48.760;2.322;2023-05-27T02:27:58;101585.22;;;21.07;49.69
56518;BME280;42419;48.760;2.322;2023-05-27T02:30:28;101552.59;;;20.95;49.79
56518;BME280;42419;48.760;2.322;2023-05-27T02:32:55;101575.34;;;21.09;49.98
56518;BME280;42419;48.760;2.322;2023-05-27T02:35:21;101581.59;;;21.10;49.89
56518;BME280;42419;48.760;2.322;2023-05-27T02:37:46;101573.59;;;21.08;49.99
56518;BME280;42419;48.760;2.322;2023-05-27T02:40:12;101566.72;;;21.00;49.80
56518;BME280;42419;48.760;2.322;2023-05-27T02:42:37;101564.00;;;21.01;50.12
56518;BME280;42419;48.760;2.322;2023-05-27T02:45:04;101571.78;;;21.09;50.05
56518;BME280;42419;48.760;2.322;2023-05-27T02:47:29;101572.66;;;21.09;49.85
56518;BME280;42419;48.760;2.322;2023-05-27T02:49:58;101572.66;;;21.09;49.71
56518;BME280;42419;48.760;2.322;2023-05-27T02:52:23;101570.00;;;21.09;49.59
56518;BME280;42419;48.760;2.322;2023-05-27T02:54:49;101546.19;;;21.00;49.64
56518;BME280;42419;48.760;2.322;2023-05-27T02:57:14;101549.66;;;21.02;49.72
56518;BME280;42419;48.760;2.322;2023-05-27T02:59:40;101563.78;;;21.07;49.37
56518;BME280;42419;48.760;2.322;2023-05-27T03:02:05;101563.78;;;21.07;49.84
56518;BME280;42419;48.760;2.322;2023-05-27T03:04:30;101562.91;;;21.07;49.70
56518;BME280;42419;48.760;2.322;2023-05-27T03:06:56;101546.34;;;20.94;49.88
56518;BME280;42419;48.760;2.322;2023-05-27T03:09:21;101562.91;;;21.07;49.77
56518;BME280;42419;48.760;2.322;2023-05-27T03:11:47;101564.72;;;21.06;49.77
56518;BME280;42419;48.760;2.322;2023-05-27T03:14:12;101555.13;;;20.99;49.91
56518;BME280;42419;48.760;2.322;2023-05-27T03:16:38;101539.44;;;20.87;49.51
56518;BME280;42419;48.760;2.322;2023-05-27T03:19:03;101552.63;;;20.93;49.73
56518;BME280;42419;48.760;2.322;2023-05-27T03:21:28;101567.38;;;21.06;49.76
56518;BME280;42419;48.760;2.322;2023-05-27T03:23:54;101569.22;;;21.06;49.72
56518;BME280;42419;48.760;2.322;2023-05-27T03:26:19;101562.16;;;21.02;49.65
56518;BME280;42419;48.760;2.322;2023-05-27T03:28:45;101573.69;;;21.05;49.89
56518;BME280;42419;48.760;2.322;2023-05-27T03:31:10;101571.00;;;21.05;49.75
56518;BME280;42419;48.760;2.322;2023-05-27T03:33:37;101562.97;;;21.05;49.78
56518;BME280;42419;48.760;2.322;2023-05-27T03:36:03;101565.66;;;21.05;49.80
56518;BME280;42419;48.760;2.322;2023-05-27T03:38:28;101563.91;;;21.04;49.75
56518;BME280;42419;48.760;2.322;2023-05-27T03:40:54;101562.97;;;21.05;49.44
56518;BME280;42419;48.760;2.322;2023-05-27T03:43:19;101559.41;;;21.05;49.66
56518;BME280;42419;48.760;2.322;2023-05-27T03:45:44;101569.25;;;21.04;49.53
56518;BME280;42419;48.760;2.322;2023-05-27T03:48:10;101557.66;;;21.04;49.43
56518;BME280;42419;48.760;2.322;2023-05-27T03:50:35;101556.78;;;21.03;49.49
56518;BME280;42419;48.760;2.322;2023-05-27T03:53:01;101549.94;;;20.93;49.50
56518;BME280;42419;48.760;2.322;2023-05-27T03:55:26;101569.25;;;21.04;49.67
56518;BME280;42419;48.760;2.322;2023-05-27T03:57:51;101556.78;;;21.03;49.53
56518;BME280;42419;48.760;2.322;2023-05-27T04:00:17;101547.25;;;20.93;49.50
56518;BME280;42419;48.760;2.322;2023-05-27T04:02:42;101556.81;;;21.02;49.39
56518;BME280;42419;48.760;2.322;2023-05-27T04:05:08;101568.38;;;21.04;49.36
56518;BME280;42419;48.760;2.322;2023-05-27T04:07:33;101559.56;;;21.00;49.40
56518;BME280;42419;48.760;2.322;2023-05-27T04:09:59;101569.34;;;21.01;49.61
56518;BME280;42419;48.760;2.322;2023-05-27T04:12:24;101550.06;;;20.89;49.28
56518;BME280;42419;48.760;2.322;2023-05-27T04:14:50;101545.59;;;20.89;49.29
56518;BME280;42419;48.760;2.322;2023-05-27T04:17:15;101553.47;;;20.95;48.87
56518;BME280;42419;48.760;2.322;2023-05-27T04:19:42;101546.44;;;20.91;49.19
56518;BME280;42419;48.760;2.322;2023-05-27T04:22:07;101575.56;;;21.02;48.88
56518;BME280;42419;48.760;2.322;2023-05-27T04:24:33;101567.53;;;21.02;48.91
56518;BME280;42419;48.760;2.322;2023-05-27T04:27:00;101567.50;;;21.03;49.31
56518;BME280;42419;48.760;2.322;2023-05-27T04:29:27;101563.25;;;20.96;49.24
56518;BME280;42419;48.760;2.322;2023-05-27T04:31:53;101566.59;;;21.03;49.08
56518;BME280;42419;48.760;2.322;2023-05-27T04:34:18;101566.59;;;21.03;49.12
56518;BME280;42419;48.760;2.322;2023-05-27T04:36:44;101565.72;;;21.02;48.72
56518;BME280;42419;48.760;2.322;2023-05-27T04:39:17;101565.78;;;21.01;49.08
56518;BME280;42419;48.760;2.322;2023-05-27T04:41:43;101557.75;;;21.01;49.01
56518;BME280;42419;48.760;2.322;2023-05-27T04:44:10;101563.06;;;21.02;49.07
56518;BME280;42419;48.760;2.322;2023-05-27T04:46:36;101568.41;;;21.02;49.20
56518;BME280;42419;48.760;2.322;2023-05-27T04:49:04;101571.09;;;21.02;48.86
56518;BME280;42419;48.760;2.322;2023-05-27T04:51:29;101552.34;;;21.02;48.82
56518;BME280;42419;48.760;2.322;2023-05-27T04:53:54;101555.00;;;21.02;48.78
56518;BME280;42419;48.760;2.322;2023-05-27T04:56:21;101556.78;;;21.03;48.72
56518;BME280;42419;48.760;2.322;2023-05-27T04:58:46;101554.13;;;21.02;48.57
56518;BME280;42419;48.760;2.322;2023-05-27T05:01:13;101555.00;;;21.02;48.54
56518;BME280;42419;48.760;2.322;2023-05-27T05:03:45;101540.22;;;20.91;48.80
56518;BME280;42419;48.760;2.322;2023-05-27T05:06:31;101553.28;;;21.01;48.58
56518;BME280;42419;48.760;2.322;2023-05-27T05:08:56;101554.13;;;21.02;48.55
56518;BME280;42419;48.760;2.322;2023-05-27T05:11:22;101566.59;;;21.03;48.54
56518;BME280;42419;48.760;2.322;2023-05-27T05:13:47;101558.56;;;21.03;48.63
56518;BME280;42419;48.760;2.322;2023-05-27T05:16:12;101565.72;;;21.02;48.60
56518;BME280;42419;48.760;2.322;2023-05-27T05:18:38;101546.38;;;20.93;48.42
56518;BME280;42419;48.760;2.322;2023-05-27T05:21:03;101555.91;;;21.03;48.40
56518;BME280;42419;48.760;2.322;2023-05-27T05:23:29;101559.47;;;21.03;48.17
56518;BME280;42419;48.760;2.322;2023-05-27T05:25:54;101557.66;;;21.04;48.18
56518;BME280;42419;48.760;2.322;2023-05-27T05:28:23;101551.47;;;21.02;48.44
56518;BME280;42419;48.760;2.322;2023-05-27T05:30:49;101553.28;;;21.01;48.07
56518;BME280;42419;48.760;2.322;2023-05-27T05:33:14;101550.53;;;21.03;48.16
56518;BME280;42419;48.760;2.322;2023-05-27T05:35:39;101560.44;;;21.01;48.02
56518;BME280;42419;48.760;2.322;2023-05-27T05:38:05;101561.22;;;21.04;48.13
56518;BME280;42419;48.760;2.322;2023-05-27T05:40:30;101535.75;;;20.91;48.19
56518;BME280;42419;48.760;2.322;2023-05-27T05:42:55;101561.19;;;21.06;48.04
56518;BME280;42419;48.760;2.322;2023-05-27T05:45:21;101565.66;;;21.05;48.26
56518;BME280;42419;48.760;2.322;2023-05-27T05:47:46;101533.06;;;20.91;48.12
56518;BME280;42419;48.760;2.322;2023-05-27T05:50:11;101555.88;;;21.04;48.36
56518;BME280;42419;48.760;2.322;2023-05-27T05:52:37;101561.13;;;21.07;48.30
56518;BME280;42419;48.760;2.322;2023-05-27T05:55:02;101548.84;;;21.00;47.95
56518;BME280;42419;48.760;2.322;2023-05-27T05:57:28;101561.13;;;21.07;47.73
56518;BME280;42419;48.760;2.322;2023-05-27T05:59:56;101565.56;;;21.08;47.18
56518;BME280;42419;48.760;2.322;2023-05-27T06:02:22;101569.03;;;21.10;47.23
56518;BME280;42419;48.760;2.322;2023-05-27T06:04:47;101571.69;;;21.12;47.82
56518;BME280;42419;48.760;2.322;2023-05-27T06:07:12;101569.88;;;21.13;48.10
56518;BME280;42419;48.760;2.322;2023-05-27T06:09:38;101558.41;;;21.09;47.92
56518;BME280;42419;48.760;2.322;2023-05-27T06:12:03;101553.94;;;21.09;47.93
56518;BME280;42419;48.760;2.322;2023-05-27T06:14:28;101565.38;;;21.15;48.33
56518;BME280;42419;48.760;2.322;2023-05-27T06:16:54;101567.13;;;21.16;48.39
56518;BME280;42419;48.760;2.322;2023-05-27T06:19:19;101562.69;;;21.15;48.23
56518;BME280;42419;48.760;2.322;2023-05-27T06:21:45;101560.97;;;21.12;48.53
56518;BME280;42419;48.760;2.322;2023-05-27T06:24:10;101538.94;;;21.02;48.25
56518;BME280;42419;48.760;2.322;2023-05-27T06:26:35;101553.78;;;21.14;48.00
56518;BME280;42419;48.760;2.322;2023-05-27T06:29:01;101569.81;;;21.16;47.98
56518;BME280;42419;48.760;2.322;2023-05-27T06:31:26;101574.25;;;21.15;47.59
56518;BME280;42419;48.760;2.322;2023-05-27T06:33:52;101571.59;;;21.15;47.78
56518;BME280;42419;48.760;2.322;2023-05-27T06:36:17;101565.38;;;21.15;47.79
56518;BME280;42419;48.760;2.322;2023-05-27T06:38:44;101560.88;;;21.15;47.95
56518;BME280;42419;48.760;2.322;2023-05-27T06:41:09;101556.50;;;21.13;47.71
56518;BME280;42419;48.760;2.322;2023-05-27T06:43:35;101564.47;;;21.16;47.67
56518;BME280;42419;48.760;2.322;2023-05-27T06:46:00;101565.34;;;21.16;47.77
56518;BME280;42419;48.760;2.322;2023-05-27T06:48:25;101560.88;;;21.17;47.54
56518;BME280;42419;48.760;2.322;2023-05-27T06:50:50;101557.31;;;21.16;47.40
56518;BME280;42419;48.760;2.322;2023-05-27T06:53:16;101546.81;;;21.08;47.56
56518;BME280;42419;48.760;2.322;2023-05-27T06:55:41;101555.50;;;21.17;47.45
56518;BME280;42419;48.760;2.322;2023-05-27T06:58:06;101558.19;;;21.17;47.58
56518;BME280;42419;48.760;2.322;2023-05-27T07:00:32;101534.34;;;21.07;47.47
56518;BME280;42419;48.760;2.322;2023-05-27T07:02:57;101521.16;;;21.01;47.47
56518;BME280;42419;48.760;2.322;2023-05-27T07:05:23;101554.63;;;21.16;47.35
56518;BME280;42419;48.760;2.322;2023-05-27T07:07:48;101548.34;;;21.17;47.31
56518;BME280;42419;48.760;2.322;2023-05-27T07:10:13;101549.25;;;21.18;47.24
56518;BME280;42419;48.760;2.322;2023-05-27T07:12:38;101550.16;;;21.15;47.05
56518;BME280;42419;48.760;2.322;2023-05-27T07:15:04;101530.84;;;21.05;47.26
56518;BME280;42419;48.760;2.322;2023-05-27T07:17:30;101543.09;;;21.13;47.25
56518;BME280;42419;48.760;2.322;2023-05-27T07:19:55;101541.19;;;21.18;47.30
56518;BME280;42419;48.760;2.322;2023-05-27T07:22:21;101535.75;;;21.21;47.85
56518;BME280;42419;48.760;2.322;2023-05-27T07:24:46;101534.94;;;21.19;48.03
56518;BME280;42419;48.760;2.322;2023-05-27T07:27:12;101514.69;;;21.08;47.12
56518;BME280;42419;48.760;2.322;2023-05-27T07:29:37;101532.16;;;21.22;47.50
56518;BME280;42419;48.760;2.322;2023-05-27T07:32:03;101531.31;;;21.20;47.48
56518;BME280;42419;48.760;2.322;2023-05-27T07:34:29;101531.22;;;21.23;47.63
56518;BME280;42419;48.760;2.322;2023-05-27T07:36:55;101509.22;;;21.12;47.82
56518;BME280;42419;48.760;2.322;2023-05-27T07:39:21;101528.47;;;21.24;47.75
56518;BME280;42419;48.760;2.322;2023-05-27T07:41:46;101525.81;;;21.24;47.89
56518;BME280;42419;48.760;2.322;2023-05-27T07:44:12;101519.59;;;21.24;47.30
56518;BME280;42419;48.760;2.322;2023-05-27T07:46:37;101524.88;;;21.25;47.08
56518;BME280;42419;48.760;2.322;2023-05-27T07:49:04;101528.47;;;21.24;47.02
56518;BME280;42419;48.760;2.322;2023-05-27T07:51:30;101502.88;;;21.16;46.35
56518;BME280;42419;48.760;2.322;2023-05-27T07:53:57;101524.81;;;21.28;46.23
56518;BME280;42419;48.760;2.322;2023-05-27T07:56:22;101522.94;;;21.30;46.06
56518;BME280;42419;48.760;2.322;2023-05-27T07:58:47;101507.19;;;21.20;46.47
56518;BME280;42419;48.760;2.322;2023-05-27T08:01:13;101525.56;;;21.32;46.82
56518;BME280;42419;48.760;2.322;2023-05-27T08:03:38;101521.97;;;21.33;47.08
56518;BME280;42419;48.760;2.322;2023-05-27T08:06:03;101526.47;;;21.32;47.14
56518;BME280;42419;48.760;2.322;2023-05-27T08:08:29;101500.13;;;21.19;46.56
56518;BME280;42419;48.760;2.322;2023-05-27T08:10:54;101520.22;;;21.32;46.62
56518;BME280;42419;48.760;2.322;2023-05-27T08:13:19;101522.91;;;21.32;46.11
56518;BME280;42419;48.760;2.322;2023-05-27T08:15:45;101514.88;;;21.32;46.40
56518;BME280;42419;48.760;2.322;2023-05-27T08:18:12;101528.25;;;21.32;46.29
56518;BME280;42419;48.760;2.322;2023-05-27T08:20:37;101506.91;;;21.29;45.95
56518;BME280;42419;48.760;2.322;2023-05-27T08:23:02;101511.19;;;21.34;46.30
56518;BME280;42419;48.760;2.322;2023-05-27T08:25:28;101512.97;;;21.35;46.21
56518;BME280;42419;48.760;2.322;2023-05-27T08:27:54;101507.56;;;21.37;46.40
56518;BME280;42419;48.760;2.322;2023-05-27T08:30:27;101510.16;;;21.38;46.23
56518;BME280;42419;48.760;2.322;2023-05-27T08:32:54;101507.50;;;21.38;46.18
56518;BME280;42419;48.760;2.322;2023-05-27T08:35:20;101480.97;;;21.31;45.84
56518;BME280;42419;48.760;2.322;2023-05-27T08:37:45;101495.84;;;21.39;46.06
56518;BME280;42419;48.760;2.322;2023-05-27T08:40:14;101500.28;;;21.40;46.08
56518;BME280;42419;48.760;2.322;2023-05-27T08:42:41;101471.28;;;21.27;46.50
56518;BME280;42419;48.760;2.322;2023-05-27T08:45:08;101486.13;;;21.37;46.46
56518;BME280;42419;48.760;2.322;2023-05-27T08:47:33;101479.88;;;21.36;46.16
56518;BME280;42419;48.760;2.322;2023-05-27T08:49:58;101484.25;;;21.39;46.33
56518;BME280;42419;48.760;2.322;2023-05-27T08:52:27;101486.94;;;21.39;46.32
56518;BME280;42419;48.760;2.322;2023-05-27T08:54:54;101487.81;;;21.39;46.52
56518;BME280;42419;48.760;2.322;2023-05-27T08:57:20;101478.03;;;21.38;46.14
56518;BME280;42419;48.760;2.322;2023-05-27T08:59:50;101482.41;;;21.41;45.88
56518;BME280;42419;48.760;2.322;2023-05-27T09:02:18;101478.78;;;21.42;46.21
56518;BME280;42419;48.760;2.322;2023-05-27T09:04:45;101455.94;;;21.32;45.88
56518;BME280;42419;48.760;2.322;2023-05-27T09:07:11;101478.78;;;21.42;46.19
56518;BME280;42419;48.760;2.322;2023-05-27T09:09:36;101469.94;;;21.40;46.00
56518;BME280;42419;48.760;2.322;2023-05-27T09:12:02;101473.44;;;21.42;46.02
56518;BME280;42419;48.760;2.322;2023-05-27T09:14:28;101473.44;;;21.42;46.28
56518;BME280;42419;48.760;2.322;2023-05-27T09:16:55;101465.34;;;21.43;45.99
56518;BME280;42419;48.760;2.322;2023-05-27T09:19:20;101456.44;;;21.43;45.91
56518;BME280;42419;48.760;2.322;2023-05-27T09:21:46;101458.22;;;21.42;45.73
56518;BME280;42419;48.760;2.322;2023-05-27T09:24:11;101444.03;;;21.40;45.70
56518;BME280;42419;48.760;2.322;2023-05-27T09:26:37;101452.00;;;21.42;45.42
56518;BME280;42419;48.760;2.322;2023-05-27T09:29:09;101450.16;;;21.44;45.42
56518;BME280;42419;48.760;2.322;2023-05-27T09:31:39;101432.59;;;21.35;45.08
56518;BME280;42419;48.760;2.322;2023-05-27T09:34:13;101437.69;;;21.43;45.07
56518;BME280;42419;48.760;2.322;2023-05-27T09:36:46;101432.31;;;21.43;44.75
56518;BME280;42419;48.760;2.322;2023-05-27T09:39:13;101444.81;;;21.44;44.79
56518;BME280;42419;48.760;2.322;2023-05-27T09:41:39;101429.59;;;21.44;44.84
56518;BME280;42419;48.760;2.322;2023-05-27T09:44:05;101419.00;;;21.41;44.80
56518;BME280;42419;48.760;2.322;2023-05-27T09:46:32;101413.50;;;21.46;44.66
56518;BME280;42419;48.760;2.322;2023-05-27T09:48:59;101418.00;;;21.44;44.31
56518;BME280;42419;48.760;2.322;2023-05-27T09:51:31;101422.44;;;21.45;44.15
56518;BME280;42419;48.760;2.322;2023-05-27T09:53:58;101414.34;;;21.46;43.94
56518;BME280;42419;48.760;2.322;2023-05-27T09:56:25;101414.28;;;21.48;43.86
56518;BME280;42419;48.760;2.322;2023-05-27T09:58:54;101410.69;;;21.49;43.69
56518;BME280;42419;48.760;2.322;2023-05-27T10:01:20;101412.44;;;21.50;43.96
56518;BME280;42419;48.760;2.322;2023-05-27T10:03:46;101405.53;;;21.43;43.39
56518;BME280;42419;48.760;2.322;2023-05-27T10:06:14;101409.84;;;21.47;43.66
56518;BME280;42419;48.760;2.322;2023-05-27T10:08:42;101396.63;;;21.42;43.63
56518;BME280;42419;48.760;2.322;2023-05-27T10:11:09;101408.72;;;21.54;43.70
56518;BME280;42419;48.760;2.322;2023-05-27T10:13:35;101413.09;;;21.57;43.42
56518;BME280;42419;48.760;2.322;2023-05-27T10:16:01;101394.41;;;21.55;42.93
56518;BME280;42419;48.760;2.322;2023-05-27T10:18:28;101394.28;;;21.58;42.55
56518;BME280;42419;48.760;2.322;2023-05-27T10:20:56;101394.25;;;21.60;42.64
56518;BME280;42419;48.760;2.322;2023-05-27T10:23:27;101388.81;;;21.61;42.46
56518;BME280;42419;48.760;2.322;2023-05-27T10:26:01;101392.31;;;21.63;42.33
56518;BME280;42419;48.760;2.322;2023-05-27T10:28:34;101386.00;;;21.64;42.82
56518;BME280;42419;48.760;2.322;2023-05-27T10:31:10;101394.00;;;21.66;42.37
56518;BME280;42419;48.760;2.322;2023-05-27T10:33:42;101384.16;;;21.66;42.80
56518;BME280;42419;48.760;2.322;2023-05-27T10:38:37;101374.38;;;21.65;42.41
56518;BME280;42419;48.760;2.322;2023-05-27T10:41:05;101340.09;;;21.50;42.67
56518;BME280;42419;48.760;2.322;2023-05-27T10:43:31;101384.75;;;21.74;42.24
56518;BME280;42419;48.760;2.322;2023-05-27T10:46:08;101374.00;;;21.76;42.33
56518;BME280;42419;48.760;2.322;2023-05-27T10:48:34;101371.28;;;21.77;42.51
56518;BME280;42419;48.760;2.322;2023-05-27T10:50:59;101373.88;;;21.79;42.38
56518;BME280;42419;48.760;2.322;2023-05-27T10:53:26;101336.75;;;21.68;42.28
56518;BME280;42419;48.760;2.322;2023-05-27T10:55:52;101355.06;;;21.80;42.58
56518;BME280;42419;48.760;2.322;2023-05-27T10:58:19;101355.88;;;21.82;42.36
56518;BME280;42419;48.760;2.322;2023-05-27T11:00:48;101350.59;;;21.81;42.44
56518;BME280;42419;48.760;2.322;2023-05-27T11:03:24;101348.66;;;21.84;42.16
56518;BME280;42419;48.760;2.322;2023-05-27T11:06:04;101332.88;;;21.77;41.94
56518;BME280;42419;48.760;2.322;2023-05-27T11:08:34;101346.81;;;21.86;42.04
56518;BME280;42419;48.760;2.322;2023-05-27T11:11:10;101345.00;;;21.87;42.46
56518;BME280;42419;48.760;2.322;2023-05-27T11:13:38;101331.91;;;21.78;42.48
56518;BME280;42419;48.760;2.322;2023-05-27T11:16:05;101338.59;;;21.91;42.49
56518;BME280;42419;48.760;2.322;2023-05-27T11:21:00;101339.38;;;21.94;43.06
56518;BME280;42419;48.760;2.322;2023-05-27T11:23:38;101333.00;;;21.97;43.23
56518;BME280;42419;48.760;2.322;2023-05-27T11:28:50;101334.72;;;22.00;43.14
56518;BME280;42419;48.760;2.322;2023-05-27T11:31:16;101331.97;;;22.01;43.53
56518;BME280;42419;48.760;2.322;2023-05-27T11:33:42;101331.91;;;22.03;43.32
56518;BME280;42419;48.760;2.322;2023-05-27T11:36:11;101321.97;;;22.05;43.41
56518;BME280;42419;48.760;2.322;2023-05-27T11:38:50;101321.06;;;22.06;43.25
56518;BME280;42419;48.760;2.322;2023-05-27T11:41:16;101310.28;;;22.07;43.17
56518;BME280;42419;48.760;2.322;2023-05-27T11:43:50;101311.16;;;22.08;43.05
56518;BME280;42419;48.760;2.322;2023-05-27T11:46:16;101282.75;;;22.02;43.12
56518;BME280;42419;48.760;2.322;2023-05-27T11:48:42;101297.63;;;22.11;42.99
56518;BME280;42419;48.760;2.322;2023-05-27T11:51:07;101289.56;;;22.11;42.74
56518;BME280;42419;48.760;2.322;2023-05-27T11:53:38;101293.09;;;22.13;43.09
56518;BME280;42419;48.760;2.322;2023-05-27T11:56:03;101278.28;;;22.03;42.53
56518;BME280;42419;48.760;2.322;2023-05-27T11:58:28;101278.78;;;22.12;42.48
56518;BME280;42419;48.760;2.322;2023-05-27T12:00:54;101288.53;;;22.15;42.66
56518;BME280;42419;48.760;2.322;2023-05-27T12:03:19;101257.00;;;21.98;42.48
56518;BME280;42419;48.760;2.322;2023-05-27T12:05:44;101278.63;;;22.17;42.29
56518;BME280;42419;48.760;2.322;2023-05-27T12:08:10;101299.13;;;22.18;42.03
56518;BME280;42419;48.760;2.322;2023-05-27T12:10:35;101271.50;;;22.16;42.26
56518;BME280;42419;48.760;2.322;2023-05-27T12:13:07;101285.53;;;22.22;42.18
56518;BME280;42419;48.760;2.322;2023-05-27T12:15:32;101284.53;;;22.25;42.16
56518;BME280;42419;48.760;2.322;2023-05-27T12:17:58;101285.34;;;22.27;41.77
56518;BME280;42419;48.760;2.322;2023-05-27T12:20:23;101287.00;;;22.31;41.83
56518;BME280;42419;48.760;2.322;2023-05-27T12:22:53;101277.94;;;22.33;41.44
56518;BME280;42419;48.760;2.322;2023-05-27T12:25:19;101274.31;;;22.34;41.41
56518;BME280;42419;48.760;2.322;2023-05-27T12:27:45;101281.31;;;22.38;41.10
56518;BME280;42419;48.760;2.322;2023-05-27T12:30:11;101258.28;;;22.33;41.39
56518;BME280;42419;48.760;2.322;2023-05-27T12:32:36;101276.53;;;22.45;41.08
56518;BME280;42419;48.760;2.322;2023-05-27T12:35:01;101281.88;;;22.47;41.05
56518;BME280;42419;48.760;2.322;2023-05-27T12:37:27;101281.72;;;22.50;41.05
56518;BME280;42419;48.760;2.322;2023-05-27T12:39:53;101272.69;;;22.52;41.24
56518;BME280;42419;48.760;2.322;2023-05-27T12:42:18;101272.59;;;22.55;40.79
56518;BME280;42419;48.760;2.322;2023-05-27T12:44:47;101275.13;;;22.58;40.78
56518;BME280;42419;48.760;2.322;2023-05-27T12:47:12;101261.72;;;22.58;40.91
56518;BME280;42419;48.760;2.322;2023-05-27T12:49:37;101257.13;;;22.62;41.07
56518;BME280;42419;48.760;2.322;2023-05-27T12:52:03;101257.13;;;22.62;41.09
56518;BME280;42419;48.760;2.322;2023-05-27T12:54:31;101239.50;;;22.55;41.03
56518;BME280;42419;48.760;2.322;2023-05-27T12:56:57;101255.91;;;22.69;41.20
56518;BME280;42419;48.760;2.322;2023-05-27T12:59:23;101254.09;;;22.69;41.04
56518;BME280;42419;48.760;2.322;2023-05-27T13:01:48;101267.47;;;22.71;40.90